Time;durP1;ratioP1;P1;durP2;ratioP2;P2;SDS_P1;SDS_P2;PMS_P1;PMS_P2;Temp;Humidity;BMP_temperature;BMP_pressure;BME280_temperature;BME280_humidity;BME280_pressure;Samples;Min_cycle;Max_cycle;Signal;HPM_P1;HPM_P2
2023/08/05 00:00:12;;;;;;;0.20;0.20;;;19.30;98.60;;;;;;5053156;28;20024;-80
2023/08/05 00:02:38;;;;;;;1.90;0.20;;;19.30;98.20;;;;;;5052522;28;20494;-80
2023/08/05 00:05:05;;;;;;;0.40;0.40;;;19.30;97.70;;;;;;5035375;28;20047;-80
2023/08/05 00:07:31;;;;;;;0.30;0.20;;;19.40;97.40;;;;;;5053480;28;20402;-79
2023/08/05 00:09:57;;;;;;;0.70;0.20;;;19.40;97.00;;;;;;5053501;28;20025;-79
2023/08/05 00:12:23;;;;;;;0.25;0.25;;;19.40;97.00;;;;;;5069172;28;20031;-80
2023/08/05 00:14:58;;;;;;;0.73;0.20;;;19.40;96.90;;;;;;5053698;28;20050;-81
2023/08/05 00:18:06;;;;;;;0.95;0.30;;;19.40;96.90;;;;;;5053032;28;20422;-80
2023/08/05 00:21:18;;;;;;;0.40;0.30;;;19.40;97.10;;;;;;5013923;28;20034;-79
2023/08/05 00:28:11;;;;;;;0.75;0.40;;;19.40;97.40;;;;;;4991985;28;20030;-81
2023/08/05 00:31:27;;;;;;;2.65;0.40;;;19.40;97.40;;;;;;4990740;28;20050;-80
2023/08/05 00:33:53;;;;;;;1.95;0.30;;;19.40;97.60;;;;;;4952746;28;20035;-81
2023/08/05 00:36:47;;;;;;;0.47;0.38;;;19.40;97.60;;;;;;4986759;28;20042;-80
2023/08/05 00:39:24;;;;;;;1.00;0.38;;;19.40;97.60;;;;;;4971516;28;20556;-80
2023/08/05 00:41:50;;;;;;;0.45;0.35;;;19.40;97.60;;;;;;4971949;28;20476;-79
2023/08/05 00:44:16;;;;;;;1.60;0.50;;;19.40;97.80;;;;;;5015456;28;20112;-80
2023/08/05 00:46:42;;;;;;;1.20;0.40;;;19.40;98.00;;;;;;5052912;28;20074;-79
2023/08/05 00:49:08;;;;;;;0.55;0.43;;;19.40;98.10;;;;;;5052586;28;20113;-79
2023/08/05 00:51:34;;;;;;;1.13;0.40;;;19.30;98.20;;;;;;5052568;28;20451;-79
2023/08/05 00:54:00;;;;;;;2.67;0.40;;;19.30;98.30;;;;;;5052116;28;20083;-79
2023/08/05 00:56:26;;;;;;;1.48;0.40;;;19.30;98.50;;;;;;5052702;28;20105;-79
2023/08/05 00:58:52;;;;;;;0.55;0.38;;;19.30;98.60;;;;;;5050273;28;20057;-77
2023/08/05 01:01:17;;;;;;;1.20;0.57;;;19.30;98.60;;;;;;5049713;28;20059;-79
2023/08/05 01:03:43;;;;;;;2.40;0.50;;;19.30;98.60;;;;;;5049544;28;20092;-78
2023/08/05 01:06:10;;;;;;;0.40;0.40;;;19.30;98.60;;;;;;5052019;28;20025;-79
2023/08/05 01:08:36;;;;;;;4.40;0.55;;;19.30;98.60;;;;;;5052102;28;20443;-79
2023/08/05 01:11:03;;;;;;;1.25;0.30;;;19.30;98.50;;;;;;5052185;28;20491;-79
2023/08/05 01:13:32;;;;;;;1.13;0.35;;;19.30;98.40;;;;;;5052025;28;20571;-77
2023/08/05 01:15:58;;;;;;;2.33;0.40;;;19.30;98.40;;;;;;5052222;28;20356;-77
2023/08/05 01:18:29;;;;;;;1.45;0.30;;;19.30;98.50;;;;;;5054783;28;20100;-74
2023/08/05 01:20:55;;;;;;;2.33;0.40;;;19.30;98.50;;;;;;5052108;28;20078;-74
2023/08/05 01:23:26;;;;;;;0.68;0.30;;;19.30;98.50;;;;;;5052419;28;20081;-74
2023/08/05 01:25:52;;;;;;;1.17;0.40;;;19.30;98.50;;;;;;5052406;28;20029;-74
2023/08/05 01:28:19;;;;;;;0.75;0.40;;;19.30;98.40;;;;;;5052070;28;20036;-74
2023/08/05 01:30:47;;;;;;;4.78;0.52;;;19.30;98.50;;;;;;5052097;28;20037;-74
2023/08/05 01:33:15;;;;;;;0.93;0.50;;;19.30;98.60;;;;;;5052048;28;20033;-75
2023/08/05 01:35:49;;;;;;;1.27;0.50;;;19.20;98.60;;;;;;5052293;28;20104;-74
2023/08/05 01:38:15;;;;;;;1.73;0.47;;;19.20;98.60;;;;;;5052940;28;20029;-79
2023/08/05 01:40:41;;;;;;;1.10;0.50;;;19.20;98.70;;;;;;5053037;28;20510;-81
2023/08/05 01:43:07;;;;;;;1.73;0.50;;;19.20;98.90;;;;;;5052178;28;20482;-80
2023/08/05 01:45:34;;;;;;;0.43;0.35;;;19.20;99.00;;;;;;5052643;28;20028;-80
2023/08/05 01:58:07;;;;;;;3.70;0.40;;;19.30;99.20;;;;;;5013870;28;20060;-80
2023/08/05 02:04:31;;;;;;;2.20;0.40;;;19.10;99.10;;;;;;4955405;28;20050;-79
2023/08/05 02:07:23;;;;;;;0.95;0.40;;;19.10;99.30;;;;;;4955565;28;20046;-79
2023/08/05 02:13:32;;;;;;;1.73;0.40;;;19.00;99.50;;;;;;4898309;29;20145;-78
2023/08/05 02:15:58;;;;;;;4.10;0.40;;;19.00;99.60;;;;;;4915643;29;20405;-79
2023/08/05 02:18:24;;;;;;;1.17;0.50;;;19.00;99.60;;;;;;5003861;28;20044;-78
2023/08/05 02:20:50;;;;;;;3.28;0.50;;;19.00;99.60;;;;;;5035359;28;20152;-79
2023/08/05 02:23:15;;;;;;;0.50;0.38;;;19.00;99.90;;;;;;5035327;28;20033;-80
2023/08/05 02:25:41;;;;;;;2.90;0.73;;;19.00;99.70;;;;;;5035293;28;20021;-78
2023/08/05 02:28:07;;;;;;;1.92;0.50;;;19.00;99.80;;;;;;5035220;28;20442;-80
2023/08/05 02:30:33;;;;;;;3.55;0.65;;;19.00;99.80;;;;;;5035016;28;20120;-80
2023/08/05 02:32:59;;;;;;;1.13;0.50;;;19.00;99.80;;;;;;5035011;28;20475;-80
2023/08/05 02:35:24;;;;;;;0.77;0.40;;;19.00;99.80;;;;;;5034752;28;20052;-80
2023/08/05 02:37:50;;;;;;;1.30;0.50;;;19.00;99.70;;;;;;5016972;28;20064;-81
2023/08/05 02:40:16;;;;;;;4.63;0.50;;;19.10;99.80;;;;;;5034892;28;20037;-79
2023/08/05 02:42:44;;;;;;;2.55;0.50;;;19.10;99.70;;;;;;5034872;28;20080;-78
2023/08/05 02:45:10;;;;;;;1.13;0.35;;;19.10;99.50;;;;;;5034965;28;20555;-79
2023/08/05 02:47:36;;;;;;;1.58;0.50;;;19.10;99.50;;;;;;5034671;28;20101;-79
2023/08/05 02:50:02;;;;;;;2.65;0.50;;;19.10;99.60;;;;;;5034337;28;20032;-78
2023/08/05 02:52:28;;;;;;;2.70;0.55;;;19.10;99.70;;;;;;5034835;28;20029;-80
2023/08/05 02:54:53;;;;;;;2.65;0.40;;;19.10;99.80;;;;;;5045044;28;20044;-79
2023/08/05 02:57:19;;;;;;;2.55;0.63;;;19.10;99.80;;;;;;5054672;28;20021;-79
2023/08/05 02:59:45;;;;;;;4.15;0.47;;;19.10;99.80;;;;;;5054478;28;20036;-78
2023/08/05 03:02:11;;;;;;;2.60;0.55;;;19.10;99.90;;;;;;5054385;28;20029;-77
2023/08/05 03:04:37;;;;;;;1.70;0.60;;;19.20;99.90;;;;;;5054400;28;20067;-80
2023/08/05 03:07:02;;;;;;;0.90;0.55;;;19.10;99.80;;;;;;5054220;28;20104;-79
2023/08/05 03:09:28;;;;;;;2.40;0.50;;;19.20;99.80;;;;;;5054299;28;20028;-80
2023/08/05 03:11:54;;;;;;;2.25;0.70;;;19.20;99.70;;;;;;5054910;28;20040;-79
2023/08/05 03:14:20;;;;;;;1.23;0.60;;;19.20;99.60;;;;;;5055107;28;20021;-80
2023/08/05 03:16:46;;;;;;;1.45;0.50;;;19.20;99.60;;;;;;5053610;28;20502;-78
2023/08/05 03:19:12;;;;;;;1.88;0.45;;;19.10;99.50;;;;;;5054815;28;20496;-79
2023/08/05 03:25:48;;;;;;;3.47;0.60;;;19.10;99.60;;;;;;5013028;28;20121;-79
2023/08/05 03:41:40;;;;;;;1.92;0.47;;;19.00;99.80;;;;;;4958650;28;20379;-79
2023/08/05 03:44:50;;;;;;;1.38;0.55;;;19.00;99.70;;;;;;4971350;28;20062;-79
2023/08/05 03:47:16;;;;;;;1.73;0.47;;;19.00;99.60;;;;;;4964988;28;20035;-80
2023/08/05 03:49:42;;;;;;;1.25;0.50;;;19.00;99.60;;;;;;5014866;28;20432;-79
2023/08/05 03:52:09;;;;;;;4.35;0.80;;;19.00;99.60;;;;;;5073527;28;20032;-76
2023/08/05 03:54:35;;;;;;;1.15;0.40;;;18.90;99.60;;;;;;5073199;28;20051;-79
2023/08/05 03:57:02;;;;;;;0.95;0.57;;;18.90;99.60;;;;;;5073310;28;20104;-79
2023/08/05 03:59:28;;;;;;;2.85;0.63;;;18.80;99.70;;;;;;5073196;28;20374;-77
2023/08/05 04:01:54;;;;;;;0.98;0.52;;;18.80;99.80;;;;;;5073252;28;20021;-78
2023/08/05 04:04:20;;;;;;;5.88;0.80;;;18.80;99.90;;;;;;5073327;28;20031;-79
2023/08/05 04:06:46;;;;;;;2.85;0.50;;;18.80;99.90;;;;;;5073547;28;20542;-78
2023/08/05 04:09:13;;;;;;;2.15;0.57;;;18.80;99.90;;;;;;5073121;28;20139;-80
2023/08/05 04:11:39;;;;;;;1.15;0.50;;;18.80;99.90;;;;;;5072869;28;20490;-79
2023/08/05 04:14:05;;;;;;;1.20;0.50;;;18.80;99.90;;;;;;5072892;28;20036;-79
2023/08/05 04:16:30;;;;;;;4.72;0.68;;;18.80;99.90;;;;;;5071828;28;20063;-78
2023/08/05 04:18:57;;;;;;;0.40;0.40;;;18.80;99.90;;;;;;5073226;28;20143;-79
2023/08/05 04:21:28;;;;;;;1.98;0.52;;;18.80;99.90;;;;;;5072859;28;20024;-78
2023/08/05 04:23:56;;;;;;;1.23;0.43;;;18.90;99.90;;;;;;5075208;28;20108;-74
2023/08/05 04:26:22;;;;;;;3.10;0.50;;;18.90;99.90;;;;;;5072727;28;20033;-74
2023/08/05 04:28:48;;;;;;;1.25;0.30;;;18.80;99.90;;;;;;5073141;28;20078;-74
2023/08/05 04:31:14;;;;;;;1.65;0.40;;;18.90;99.90;;;;;;5073077;28;20127;-74
2023/08/05 04:33:40;;;;;;;1.73;0.45;;;18.80;99.90;;;;;;5073354;28;20025;-74
2023/08/05 04:36:06;;;;;;;5.18;0.60;;;18.90;99.90;;;;;;5092232;28;20039;-73
2023/08/05 04:38:33;;;;;;;2.05;0.50;;;18.90;99.90;;;;;;5092856;28;20024;-73
2023/08/05 04:40:58;;;;;;;5.65;0.40;;;18.90;99.90;;;;;;5092951;28;20603;-74
2023/08/05 04:43:24;;;;;;;4.22;0.50;;;18.90;99.90;;;;;;5093280;28;20111;-79
2023/08/05 04:45:50;;;;;;;3.13;0.50;;;18.90;99.90;;;;;;5093564;28;20024;-79
2023/08/05 04:48:17;;;;;;;2.65;0.68;;;18.90;99.90;;;;;;5093177;28;20058;-77
2023/08/05 04:50:47;;;;;;;1.13;0.40;;;18.90;99.90;;;;;;5092952;28;20420;-78
2023/08/05 04:53:16;;;;;;;6.85;0.70;;;18.90;99.90;;;;;;5093335;28;20020;-78
2023/08/05 04:55:42;;;;;;;3.85;0.52;;;18.90;99.90;;;;;;5092845;28;20051;-78
2023/08/05 04:58:47;;;;;;;1.58;0.60;;;18.90;99.90;;;;;;5092610;28;20028;-79
2023/08/05 05:01:37;;;;;;;1.30;0.50;;;18.80;99.90;;;;;;5092503;28;20024;-79
2023/08/05 05:18:14;;;;;;;1.65;0.50;;;18.90;99.90;;;;;;4952705;28;20082;-78
2023/08/05 05:20:40;;;;;;;1.27;0.45;;;18.90;99.90;;;;;;4952672;28;20035;-78
2023/08/05 05:23:06;;;;;;;2.40;0.40;;;18.80;99.90;;;;;;4992824;28;20404;-79
2023/08/05 05:25:32;;;;;;;2.67;0.60;;;18.80;99.90;;;;;;5096546;28;20020;-80
2023/08/05 05:27:58;;;;;;;4.90;0.63;;;18.80;99.90;;;;;;5096363;28;20032;-78
2023/08/05 05:30:24;;;;;;;0.70;0.40;;;18.80;99.90;;;;;;5096387;28;20035;-80
2023/08/05 05:32:49;;;;;;;1.15;0.60;;;18.80;99.90;;;;;;5096921;28;20032;-79
2023/08/05 05:35:15;;;;;;;1.40;0.70;;;18.90;99.90;;;;;;5096069;28;20106;-80
2023/08/05 05:37:41;;;;;;;0.40;0.30;;;18.90;99.90;;;;;;5095981;28;20028;-73
2023/08/05 05:40:07;;;;;;;1.48;0.60;;;18.80;99.90;;;;;;5095957;28;20095;-79
2023/08/05 05:42:33;;;;;;;2.95;0.57;;;18.80;99.90;;;;;;5077864;28;20367;-78
2023/08/05 05:45:00;;;;;;;2.63;0.60;;;18.80;99.90;;;;;;5095632;28;20031;-78
2023/08/05 05:47:26;;;;;;;3.75;0.60;;;18.80;99.90;;;;;;5095942;28;20024;-75
2023/08/05 05:49:51;;;;;;;0.90;0.50;;;18.80;99.90;;;;;;5096117;28;20032;-73
2023/08/05 05:52:18;;;;;;;1.50;0.60;;;18.80;99.90;;;;;;5095770;28;20111;-74
2023/08/05 05:54:44;;;;;;;2.25;0.40;;;18.80;99.90;;;;;;5095460;28;20549;-78
2023/08/05 05:57:10;;;;;;;2.78;0.50;;;18.80;99.90;;;;;;5093822;28;20116;-78
2023/08/05 05:59:36;;;;;;;2.15;0.50;;;18.80;99.90;;;;;;5094669;28;20095;-76
2023/08/05 06:02:02;;;;;;;3.17;0.50;;;18.80;99.90;;;;;;5095634;28;20028;-78
2023/08/05 06:04:29;;;;;;;0.93;0.52;;;18.80;99.90;;;;;;5094903;28;20074;-78
2023/08/05 06:06:55;;;;;;;2.00;0.52;;;18.80;99.90;;;;;;5095703;28;20058;-75
2023/08/05 06:09:21;;;;;;;2.30;0.85;;;18.80;99.90;;;;;;5095676;28;20058;-78
2023/08/05 06:11:47;;;;;;;2.75;0.63;;;18.80;99.90;;;;;;5095485;28;20032;-78
2023/08/05 06:14:13;;;;;;;3.20;0.50;;;18.90;99.90;;;;;;5095506;28;20028;-77
2023/08/05 06:16:39;;;;;;;1.55;0.50;;;18.90;99.90;;;;;;5095350;28;20446;-75
2023/08/05 06:19:05;;;;;;;2.88;0.50;;;18.80;99.90;;;;;;5096171;28;20107;-78
2023/08/05 06:21:31;;;;;;;2.38;0.52;;;18.80;99.90;;;;;;5096131;28;20016;-78
2023/08/05 06:23:57;;;;;;;3.83;0.63;;;18.70;99.90;;;;;;5095167;28;20012;-75
2023/08/05 06:26:26;;;;;;;2.30;0.57;;;18.70;99.90;;;;;;5095429;28;20024;-75
2023/08/05 06:32:49;;;;;;;1.27;0.52;;;18.70;99.90;;;;;;5005723;28;20067;-76
2023/08/05 06:40:12;;;;;;;0.88;0.35;;;18.70;99.90;;;;;;4935979;29;20537;-75
2023/08/05 06:46:49;;;;;;;1.80;0.40;;;18.70;99.90;;;;;;4916469;29;20073;-75
2023/08/05 06:52:18;;;;;;;1.48;0.50;;;18.80;99.90;;;;;;4821857;29;20042;-75
2023/08/05 06:54:45;;;;;;;4.25;0.45;;;18.80;99.90;;;;;;4882969;29;20407;-74
2023/08/05 06:57:11;;;;;;;1.50;0.55;;;18.80;99.90;;;;;;4963747;28;20442;-74
2023/08/05 06:59:36;;;;;;;0.95;0.52;;;18.80;99.90;;;;;;5048410;28;20463;-75
2023/08/05 07:02:03;;;;;;;2.00;0.70;;;18.70;99.90;;;;;;5080844;28;20037;-75
2023/08/05 07:04:29;;;;;;;2.35;0.57;;;18.80;99.90;;;;;;5077996;28;20361;-74
2023/08/05 07:06:55;;;;;;;2.38;0.50;;;18.70;99.90;;;;;;5077612;28;20123;-75
2023/08/05 07:09:21;;;;;;;1.60;0.60;;;18.70;99.90;;;;;;5074477;28;20032;-75
2023/08/05 07:11:46;;;;;;;3.30;0.70;;;18.70;99.90;;;;;;5073994;28;20093;-74
2023/08/05 07:14:12;;;;;;;1.08;0.50;;;18.70;99.90;;;;;;5074309;28;20146;-74
2023/08/05 07:16:38;;;;;;;2.00;0.57;;;18.70;99.90;;;;;;5073949;28;20040;-76
2023/08/05 07:19:04;;;;;;;3.00;0.65;;;18.70;99.90;;;;;;5073879;28;20044;-75
2023/08/05 07:21:30;;;;;;;3.63;0.60;;;18.70;99.90;;;;;;5073842;28;20478;-74
2023/08/05 07:23:55;;;;;;;1.13;0.50;;;18.70;99.90;;;;;;5073430;28;20066;-74
2023/08/05 07:26:21;;;;;;;1.65;0.60;;;18.60;99.90;;;;;;5055991;28;20048;-75
2023/08/05 07:28:48;;;;;;;1.17;0.47;;;18.60;99.90;;;;;;5073372;28;20102;-75
2023/08/05 07:31:15;;;;;;;1.55;0.43;;;18.60;99.90;;;;;;5072971;28;20491;-75
2023/08/05 07:33:42;;;;;;;0.80;0.40;;;18.60;99.90;;;;;;5073923;28;20398;-74
2023/08/05 07:36:13;;;;;;;1.15;0.60;;;18.60;99.90;;;;;;5073613;28;20491;-74
2023/08/05 07:38:43;;;;;;;0.55;0.40;;;18.60;99.90;;;;;;5073145;28;20067;-73
2023/08/05 07:41:09;;;;;;;0.30;0.25;;;18.60;99.90;;;;;;5073166;28;20032;-73
2023/08/05 07:43:36;;;;;;;0.50;0.30;;;18.60;99.90;;;;;;5072761;28;20028;-73
2023/08/05 07:46:03;;;;;;;2.20;0.28;;;18.60;99.90;;;;;;5072362;28;20024;-74
2023/08/05 07:48:36;;;;;;;0.98;0.50;;;18.60;99.90;;;;;;5072947;28;20027;-74
2023/08/05 07:51:06;;;;;;;0.95;0.40;;;18.50;99.90;;;;;;5072513;28;20024;-73
2023/08/05 07:53:38;;;;;;;0.63;0.40;;;18.50;99.90;;;;;;5073048;28;20026;-73
2023/08/05 07:56:11;;;;;;;0.80;0.40;;;18.50;99.90;;;;;;5033792;28;20029;-77
2023/08/05 07:58:42;;;;;;;1.10;0.30;;;18.50;99.90;;;;;;5033692;28;20029;-75
2023/08/05 08:01:08;;;;;;;2.25;0.40;;;18.40;99.90;;;;;;5033431;28;20029;-76
2023/08/05 08:03:35;;;;;;;0.40;0.32;;;18.40;99.90;;;;;;5033328;28;20072;-75
2023/08/05 08:06:16;;;;;;;;;;;;;;;;;;;;;
2023/08/05 08:12:56;;;;;;;0.88;0.30;;;18.50;99.90;;;;;;5029980;28;20407;-76
2023/08/05 08:26:15;;;;;;;0.80;0.38;;;18.60;99.90;;;;;;4895920;29;20096;-73
2023/08/05 08:28:41;;;;;;;1.20;0.30;;;18.60;99.90;;;;;;4982893;28;20053;-73
2023/08/05 08:31:10;;;;;;;0.98;0.40;;;18.60;99.90;;;;;;5025311;28;20125;-75
2023/08/05 08:33:38;;;;;;;1.75;0.60;;;18.50;99.90;;;;;;5032723;28;20056;-75
2023/08/05 08:36:05;;;;;;;3.30;0.50;;;18.60;99.90;;;;;;5032775;28;20040;-76
2023/08/05 08:38:31;;;;;;;0.73;0.50;;;18.50;99.90;;;;;;5032688;28;20029;-76
2023/08/05 08:41:03;;;;;;;1.45;0.30;;;18.50;99.90;;;;;;5032684;28;20029;-76
2023/08/05 08:43:30;;;;;;;0.68;0.40;;;18.60;99.90;;;;;;5032617;28;20117;-76
2023/08/05 08:45:57;;;;;;;2.13;0.50;;;18.50;99.90;;;;;;5031323;28;20061;-74
2023/08/05 08:48:25;;;;;;;0.30;0.25;;;18.50;99.90;;;;;;5032234;28;20032;-76
2023/08/05 08:50:54;;;;;;;0.75;0.40;;;18.60;99.90;;;;;;5031638;28;20068;-75
2023/08/05 08:53:21;;;;;;;0.98;0.55;;;18.60;99.90;;;;;;5030870;28;20048;-75
2023/08/05 08:55:48;;;;;;;2.33;0.90;;;18.60;99.90;;;;;;5066889;28;20051;-76
2023/08/05 08:58:13;;;;;;;2.72;0.80;;;18.70;99.90;;;;;;5074450;28;20517;-75
2023/08/05 09:00:40;;;;;;;3.40;1.65;;;18.70;99.90;;;;;;5057006;28;20028;-76
2023/08/05 09:03:06;;;;;;;2.35;1.15;;;18.70;99.90;;;;;;5076286;28;20031;-76
2023/08/05 09:05:48;;;;;;;1.65;0.73;;;18.80;99.90;;;;;;5076085;28;20038;-75
2023/08/05 09:08:14;;;;;;;;;;;18.80;99.90;;;;;;5077255;28;20501;-77
2023/08/05 09:10:43;;;;;;;2.47;0.47;;;18.90;99.90;;;;;;5076764;28;19916;-75
2023/08/05 09:13:08;;;;;;;0.93;0.43;;;18.90;99.90;;;;;;5076566;28;20031;-75
2023/08/05 09:15:36;;;;;;;1.52;0.60;;;18.90;99.90;;;;;;5076678;28;20123;-76
2023/08/05 09:18:07;;;;;;;1.35;0.47;;;19.00;99.90;;;;;;5076743;28;20111;-75
2023/08/05 09:20:35;;;;;;;3.30;0.43;;;19.00;99.90;;;;;;5076472;28;20023;-75
2023/08/05 09:23:03;;;;;;;0.75;0.35;;;19.00;99.90;;;;;;5076580;28;20466;-75
2023/08/05 09:25:30;;;;;;;0.82;0.40;;;19.00;99.90;;;;;;5058373;28;20020;-76
2023/08/05 09:27:57;;;;;;;1.65;0.55;;;19.10;99.90;;;;;;5076218;28;20090;-75
2023/08/05 09:30:26;;;;;;;1.92;0.50;;;19.10;99.90;;;;;;5058218;28;20405;-75
2023/08/05 09:32:53;;;;;;;2.38;0.50;;;19.10;99.90;;;;;;5076206;28;20108;-75
2023/08/05 09:35:20;;;;;;;1.48;0.40;;;19.20;99.90;;;;;;5076273;28;20021;-75
2023/08/05 09:37:48;;;;;;;1.00;0.30;;;19.20;99.90;;;;;;5076653;28;20082;-75
2023/08/05 09:40:24;;;;;;;1.30;0.30;;;19.20;99.90;;;;;;5076391;28;20028;-75
2023/08/05 09:42:57;;;;;;;0.60;0.30;;;19.20;99.90;;;;;;5076531;28;20020;-75
2023/08/05 09:45:25;;;;;;;5.10;0.82;;;19.20;99.90;;;;;;5058455;28;20086;-75
2023/08/05 09:48:10;;;;;;;1.13;0.40;;;19.30;99.90;;;;;;5076225;28;20017;-76
2023/08/05 10:08:42;;;;;;;0.35;0.30;;;19.20;99.90;;;;;;4955254;28;20545;-74
2023/08/05 10:11:29;;;;;;;0.47;0.35;;;19.10;99.90;;;;;;4954962;29;20047;-74
2023/08/05 10:14:13;;;;;;;3.88;0.30;;;19.10;99.90;;;;;;4934070;29;20031;-73
2023/08/05 10:16:39;;;;;;;0.32;0.28;;;19.10;99.90;;;;;;4955276;28;20082;-74
2023/08/05 10:19:06;;;;;;;0.98;0.30;;;19.10;99.90;;;;;;5011565;28;20073;-73
2023/08/05 10:21:36;;;;;;;0.80;0.40;;;19.00;99.90;;;;;;5055499;28;20421;-73
2023/08/05 10:24:03;;;;;;;0.98;0.40;;;19.00;99.90;;;;;;5054584;28;20044;-74
2023/08/05 10:26:44;;;;;;;0.45;0.30;;;19.00;99.90;;;;;;5055204;28;20403;-74
2023/08/05 10:29:29;;;;;;;0.20;0.20;;;19.00;99.90;;;;;;5055074;28;20090;-74
2023/08/05 10:32:14;;;;;;;0.35;0.30;;;19.00;99.90;;;;;;5036947;28;20503;-74
2023/08/05 10:34:40;;;;;;;2.60;0.60;;;19.00;99.90;;;;;;5037126;28;20364;-74
2023/08/05 10:37:06;;;;;;;1.40;0.47;;;19.00;99.90;;;;;;5054726;28;20032;-73
2023/08/05 10:39:40;;;;;;;0.60;0.40;;;19.00;99.90;;;;;;5054866;28;20033;-74
2023/08/05 10:42:28;;;;;;;1.05;0.30;;;19.10;99.90;;;;;;5054545;28;20024;-73
2023/08/05 10:44:55;;;;;;;1.90;0.52;;;19.10;99.90;;;;;;5054125;28;20492;-74
2023/08/05 10:47:24;;;;;;;2.72;0.60;;;19.10;99.90;;;;;;5036448;28;20136;-76
2023/08/05 10:49:57;;;;;;;1.48;0.60;;;19.10;99.90;;;;;;5054661;28;20025;-78
2023/08/05 10:52:23;;;;;;;1.33;0.38;;;19.10;99.90;;;;;;5054473;28;20040;-78
2023/08/05 10:54:51;;;;;;;1.10;0.43;;;19.10;99.90;;;;;;5054166;28;20021;-78
2023/08/05 10:57:45;;;;;;;1.10;0.60;;;19.10;99.90;;;;;;5056971;28;20041;-74
2023/08/05 11:00:19;;;;;;;2.85;0.38;;;19.10;99.90;;;;;;5054145;28;20021;-75
2023/08/05 11:02:46;;;;;;;1.58;0.35;;;19.00;99.90;;;;;;5053741;28;20055;-73
2023/08/05 11:05:12;;;;;;;1.08;0.38;;;19.00;99.90;;;;;;5054203;28;20028;-73
2023/08/05 11:07:40;;;;;;;0.82;0.50;;;19.10;99.90;;;;;;5054073;28;20029;-73
2023/08/05 11:10:06;;;;;;;0.60;0.40;;;19.10;99.90;;;;;;5035818;28;20108;-75
2023/08/05 11:12:32;;;;;;;0.52;0.50;;;19.10;99.90;;;;;;5051464;28;20048;-74
2023/08/05 11:15:01;;;;;;;1.65;0.57;;;19.10;99.90;;;;;;5051073;28;20025;-75
2023/08/05 11:17:27;;;;;;;3.83;0.50;;;19.10;99.90;;;;;;5052263;28;20044;-75
2023/08/05 11:19:57;;;;;;;1.58;0.60;;;19.10;99.90;;;;;;5053006;28;20025;-76
2023/08/05 11:22:29;;;;;;;1.25;0.50;;;19.10;99.90;;;;;;5052252;28;20094;-76
2023/08/05 11:25:04;;;;;;;;;;;19.10;99.90;;;;;;5052045;28;20376;-78
2023/08/05 11:27:39;;;;;;;2.60;0.55;;;19.10;99.90;;;;;;5052555;28;19999;-78
2023/08/05 11:30:13;;;;;;;4.53;0.60;;;19.10;99.90;;;;;;5054465;28;20029;-77
2023/08/05 11:43:06;;;;;;;3.33;0.55;;;19.20;99.90;;;;;;4840782;29;20525;-77
2023/08/05 11:50:23;;;;;;;6.75;0.60;;;19.20;99.90;;;;;;4766092;30;20050;-81
2023/08/05 11:59:47;;;;;;;2.08;0.50;;;19.30;99.90;;;;;;4807651;29;20045;-82
2023/08/05 12:02:14;;;;;;;1.20;0.50;;;19.40;99.90;;;;;;4931906;29;20059;-79
2023/08/05 12:04:44;;;;;;;0.47;0.40;;;19.40;99.90;;;;;;4931837;29;20576;-79
2023/08/05 12:07:20;;;;;;;0.70;0.50;;;19.40;99.90;;;;;;5031733;28;20033;-80
2023/08/05 12:10:04;;;;;;;0.73;0.40;;;19.40;99.90;;;;;;5052302;28;20029;-82
2023/08/05 12:12:30;;;;;;;1.13;0.40;;;19.50;99.90;;;;;;5053005;28;20033;-83
2023/08/05 12:15:17;;;;;;;2.28;0.40;;;19.50;99.90;;;;;;5052696;28;20029;-82
2023/08/05 12:17:47;;;;;;;3.15;0.45;;;19.50;99.90;;;;;;5052703;28;20028;-79
2023/08/05 12:20:19;;;;;;;0.85;0.43;;;19.60;99.90;;;;;;5034822;28;20369;-82
2023/08/05 12:22:46;;;;;;;0.52;0.43;;;19.50;99.90;;;;;;5052662;28;20029;-82
2023/08/05 12:25:12;;;;;;;1.92;0.40;;;19.60;99.90;;;;;;5052928;28;20483;-82
2023/08/05 12:27:38;;;;;;;0.57;0.40;;;19.50;99.90;;;;;;5052625;28;20034;-82
2023/08/05 12:30:06;;;;;;;2.17;0.30;;;19.60;99.90;;;;;;5052739;28;20033;-82
2023/08/05 12:32:33;;;;;;;1.33;0.40;;;19.50;99.90;;;;;;5052486;28;20044;-79
2023/08/05 12:35:01;;;;;;;1.05;0.30;;;19.50;99.90;;;;;;5034603;28;20079;-81
2023/08/05 12:37:26;;;;;;;0.20;0.20;;;19.60;99.90;;;;;;5051104;28;20478;-78
2023/08/05 12:39:52;;;;;;;0.20;0.20;;;19.50;99.90;;;;;;5063376;28;20043;-77
2023/08/05 12:42:18;;;;;;;0.20;0.20;;;19.50;99.90;;;;;;5100442;22;20101;-77
2023/08/05 12:44:44;;;;;;;1.42;0.43;;;19.50;99.90;;;;;;5113521;28;20026;-77
2023/08/05 12:47:10;;;;;;;0.30;0.25;;;19.50;99.90;;;;;;5113402;28;20035;-76
2023/08/05 12:49:36;;;;;;;0.98;0.50;;;19.50;99.90;;;;;;5113113;28;20030;-79
2023/08/05 12:52:03;;;;;;;0.55;0.40;;;19.40;99.90;;;;;;5112690;28;20031;-78
2023/08/05 12:54:30;;;;;;;0.65;0.30;;;19.50;99.90;;;;;;5095153;28;20051;-78
2023/08/05 12:56:56;;;;;;;0.82;0.17;;;19.50;99.90;;;;;;5113184;28;20039;-77
2023/08/05 12:59:23;;;;;;;0.75;0.30;;;19.50;99.90;;;;;;5113432;28;20450;-78
2023/08/05 13:01:48;;;;;;;1.08;0.38;;;19.50;99.90;;;;;;5113267;28;20473;-78
2023/08/05 13:04:14;;;;;;;1.40;0.57;;;19.50;99.90;;;;;;5112781;28;20030;-78
2023/08/05 13:06:40;;;;;;;0.50;0.30;;;19.50;99.90;;;;;;5112638;28;20069;-78
2023/08/05 13:09:06;;;;;;;0.85;0.50;;;19.50;99.90;;;;;;5113078;28;20035;-77
2023/08/05 13:11:32;;;;;;;1.02;0.30;;;19.50;99.90;;;;;;5112978;28;20074;-77
2023/08/05 13:13:57;;;;;;;3.67;0.47;;;19.50;99.90;;;;;;5112737;28;20020;-77
2023/08/05 13:16:23;;;;;;;0.63;0.50;;;19.60;99.90;;;;;;5112923;28;20051;-76
2023/08/05 13:18:49;;;;;;;1.17;0.40;;;19.60;99.90;;;;;;5112288;28;20024;-79
2023/08/05 13:21:14;;;;;;;0.77;0.30;;;19.60;99.90;;;;;;5112617;28;20024;-77
2023/08/05 13:23:40;;;;;;;2.40;0.30;;;19.60;99.90;;;;;;5110566;28;20015;-78
2023/08/05 13:26:06;;;;;;;0.40;0.30;;;19.60;99.90;;;;;;5109946;28;20059;-77
2023/08/05 13:28:32;;;;;;;0.57;0.30;;;19.60;99.90;;;;;;5111183;28;20065;-76
2023/08/05 13:31:04;;;;;;;1.55;0.38;;;19.60;99.90;;;;;;5112632;28;20184;-79
2023/08/05 13:33:31;;;;;;;0.70;0.22;;;19.60;99.90;;;;;;5112458;28;20030;-77
2023/08/05 13:35:57;;;;;;;1.50;0.20;;;19.50;99.90;;;;;;5112393;28;20023;-78
2023/08/05 13:38:25;;;;;;;0.40;0.28;;;19.60;99.90;;;;;;5112961;28;20095;-78
2023/08/05 13:40:55;;;;;;;0.95;0.30;;;19.50;99.90;;;;;;5113315;28;20111;-77
2023/08/05 13:43:22;;;;;;;0.20;0.20;;;19.50;99.90;;;;;;5113472;28;20053;-77
2023/08/05 13:45:53;;;;;;;1.15;0.38;;;19.40;99.90;;;;;;5117139;28;20381;-78
2023/08/05 14:13:03;;;;;;;2.53;0.43;;;19.40;99.90;;;;;;4823850;29;20057;-77
2023/08/05 14:15:29;;;;;;;1.27;0.30;;;19.40;99.90;;;;;;4824539;29;20508;-77
2023/08/05 14:17:55;;;;;;;0.30;0.20;;;19.40;99.90;;;;;;4932412;29;20027;-77
2023/08/05 14:20:21;;;;;;;0.57;0.30;;;19.40;99.90;;;;;;5101186;28;20035;-77
2023/08/05 14:22:47;;;;;;;0.80;0.30;;;19.40;99.90;;;;;;5115736;28;20053;-78
2023/08/05 14:25:13;;;;;;;0.35;0.30;;;19.40;99.90;;;;;;5115759;28;20058;-76
2023/08/05 14:27:38;;;;;;;0.30;0.30;;;19.40;99.90;;;;;;5097367;28;20020;-76
2023/08/05 14:30:05;;;;;;;2.85;0.60;;;19.40;99.90;;;;;;5104250;28;20035;-78
2023/08/05 14:32:30;;;;;;;0.80;0.30;;;19.40;99.90;;;;;;5094871;28;20435;-78
2023/08/05 14:34:56;;;;;;;0.30;0.30;;;19.40;99.90;;;;;;5095146;28;20024;-78
2023/08/05 14:37:22;;;;;;;3.05;0.35;;;19.50;99.90;;;;;;5095279;28;20024;-78
2023/08/05 14:39:52;;;;;;;5.30;0.98;;;19.50;99.90;;;;;;5095070;28;20024;-75
2023/08/05 14:42:17;;;;;;;0.98;0.50;;;19.50;99.90;;;;;;5094558;28;20527;-77
2023/08/05 14:44:43;;;;;;;1.58;0.65;;;19.50;99.90;;;;;;5096052;28;20029;-74
2023/08/05 14:47:09;;;;;;;1.50;0.65;;;19.50;99.90;;;;;;5095059;28;20025;-74
2023/08/05 14:49:35;;;;;;;1.58;0.70;;;19.60;99.90;;;;;;5094617;28;20020;-75
2023/08/05 14:52:00;;;;;;;3.20;0.70;;;19.60;99.90;;;;;;5094613;28;20028;-72
2023/08/05 14:54:26;;;;;;;1.17;0.50;;;19.60;99.90;;;;;;5094657;28;20100;-73
2023/08/05 14:56:52;;;;;;;1.35;0.70;;;19.60;99.90;;;;;;5076200;28;20027;-74
2023/08/05 14:59:18;;;;;;;2.17;0.77;;;19.60;99.90;;;;;;5094365;28;20081;-74
2023/08/05 15:01:44;;;;;;;1.10;0.52;;;19.60;99.90;;;;;;5094310;28;20028;-74
2023/08/05 15:04:10;;;;;;;1.85;0.65;;;19.60;99.90;;;;;;5094305;28;20035;-75
2023/08/05 15:06:35;;;;;;;0.73;0.63;;;19.60;99.90;;;;;;5094353;28;20020;-74
2023/08/05 15:09:03;;;;;;;3.50;0.57;;;19.70;99.90;;;;;;5094388;28;20066;-75
2023/08/05 15:11:30;;;;;;;4.88;1.48;;;19.60;99.90;;;;;;5094256;28;20016;-75
2023/08/05 15:13:56;;;;;;;1.17;0.60;;;19.60;99.90;;;;;;5094737;28;20103;-75
2023/08/05 15:16:21;;;;;;;1.58;0.65;;;19.60;99.90;;;;;;5094807;28;20477;-75
2023/08/05 15:18:47;;;;;;;3.10;0.85;;;19.70;99.90;;;;;;5095062;28;20473;-75
2023/08/05 15:21:13;;;;;;;2.03;0.70;;;19.70;99.90;;;;;;5094980;28;20063;-75
2023/08/05 15:23:42;;;;;;;1.50;0.70;;;19.70;99.90;;;;;;5094974;28;20020;-75